sensor_id;sensor_type;location;lat;lon;timestamp;temperature;humidity
68433;DHT22;55412;51.350;17.056;2023-07-13T00:00:50;22.20;69.00
68433;DHT22;55412;51.350;17.056;2023-07-13T00:03:16;22.20;69.00
68433;DHT22;55412;51.350;17.056;2023-07-13T00:05:42;22.10;69.40
68433;DHT22;55412;51.350;17.056;2023-07-13T00:08:09;22.10;69.30
68433;DHT22;55412;51.350;17.056;2023-07-13T00:10:40;22.10;69.60
68433;DHT22;55412;51.350;17.056;2023-07-13T00:13:08;22.10;69.60
68433;DHT22;55412;51.350;17.056;2023-07-13T00:15:37;22.10;69.80
68433;DHT22;55412;51.350;17.056;2023-07-13T00:18:04;22.10;69.80
68433;DHT22;55412;51.350;17.056;2023-07-13T00:20:30;22.10;70.00
68433;DHT22;55412;51.350;17.056;2023-07-13T00:22:56;22.10;69.90
68433;DHT22;55412;51.350;17.056;2023-07-13T00:25:23;22.10;69.70
68433;DHT22;55412;51.350;17.056;2023-07-13T00:27:51;22.10;69.60
68433;DHT22;55412;51.350;17.056;2023-07-13T00:30:18;22.00;69.50
68433;DHT22;55412;51.350;17.056;2023-07-13T00:32:44;22.00;69.60
68433;DHT22;55412;51.350;17.056;2023-07-13T00:35:12;22.00;69.40
68433;DHT22;55412;51.350;17.056;2023-07-13T00:37:39;22.00;69.40
68433;DHT22;55412;51.350;17.056;2023-07-13T00:40:06;22.00;69.80
68433;DHT22;55412;51.350;17.056;2023-07-13T00:42:34;21.90;69.90
68433;DHT22;55412;51.350;17.056;2023-07-13T00:47:46;21.90;69.70
68433;DHT22;55412;51.350;17.056;2023-07-13T00:50:14;21.90;69.50
68433;DHT22;55412;51.350;17.056;2023-07-13T00:52:45;21.90;69.70
68433;DHT22;55412;51.350;17.056;2023-07-13T00:55:13;21.90;69.90
68433;DHT22;55412;51.350;17.056;2023-07-13T00:57:41;21.90;69.80
68433;DHT22;55412;51.350;17.056;2023-07-13T01:00:08;21.80;69.70
68433;DHT22;55412;51.350;17.056;2023-07-13T01:02:39;21.80;69.80
68433;DHT22;55412;51.350;17.056;2023-07-13T01:05:15;21.80;69.70
68433;DHT22;55412;51.350;17.056;2023-07-13T01:07:45;21.80;70.00
68433;DHT22;55412;51.350;17.056;2023-07-13T01:10:15;21.80;69.90
68433;DHT22;55412;51.350;17.056;2023-07-13T01:12:41;21.80;69.90
68433;DHT22;55412;51.350;17.056;2023-07-13T01:15:34;21.70;69.90
68433;DHT22;55412;51.350;17.056;2023-07-13T01:18:18;21.70;70.00
68433;DHT22;55412;51.350;17.056;2023-07-13T01:21:05;21.70;69.60
68433;DHT22;55412;51.350;17.056;2023-07-13T01:23:32;21.70;69.70
68433;DHT22;55412;51.350;17.056;2023-07-13T01:25:59;21.60;69.60
68433;DHT22;55412;51.350;17.056;2023-07-13T01:28:27;21.60;69.70
68433;DHT22;55412;51.350;17.056;2023-07-13T01:30:55;21.50;69.50
68433;DHT22;55412;51.350;17.056;2023-07-13T01:33:24;21.50;69.60
68433;DHT22;55412;51.350;17.056;2023-07-13T01:35:54;21.40;68.90
68433;DHT22;55412;51.350;17.056;2023-07-13T01:38:23;21.40;69.20
68433;DHT22;55412;51.350;17.056;2023-07-13T01:40:51;21.40;70.50
68433;DHT22;55412;51.350;17.056;2023-07-13T01:43:18;21.40;70.50
68433;DHT22;55412;51.350;17.056;2023-07-13T01:45:45;21.40;70.00
68433;DHT22;55412;51.350;17.056;2023-07-13T01:48:15;21.40;70.50
68433;DHT22;55412;51.350;17.056;2023-07-13T01:50:41;21.40;70.30
68433;DHT22;55412;51.350;17.056;2023-07-13T01:53:08;21.40;69.20
68433;DHT22;55412;51.350;17.056;2023-07-13T01:55:35;21.30;70.40
68433;DHT22;55412;51.350;17.056;2023-07-13T01:58:03;21.30;70.20
68433;DHT22;55412;51.350;17.056;2023-07-13T02:00:29;21.30;70.50
68433;DHT22;55412;51.350;17.056;2023-07-13T02:02:56;21.30;70.60
68433;DHT22;55412;51.350;17.056;2023-07-13T02:05:23;21.30;70.40
68433;DHT22;55412;51.350;17.056;2023-07-13T02:07:49;21.30;70.10
68433;DHT22;55412;51.350;17.056;2023-07-13T02:10:16;21.30;69.60
68433;DHT22;55412;51.350;17.056;2023-07-13T02:12:43;21.20;69.90
68433;DHT22;55412;51.350;17.056;2023-07-13T02:15:10;21.20;69.10
68433;DHT22;55412;51.350;17.056;2023-07-13T02:17:37;21.10;69.10
68433;DHT22;55412;51.350;17.056;2023-07-13T02:20:04;21.10;69.50
68433;DHT22;55412;51.350;17.056;2023-07-13T02:22:31;21.00;70.30
68433;DHT22;55412;51.350;17.056;2023-07-13T02:24:58;21.00;69.20
68433;DHT22;55412;51.350;17.056;2023-07-13T02:27:24;21.00;69.30
68433;DHT22;55412;51.350;17.056;2023-07-13T02:29:50;20.90;69.40
68433;DHT22;55412;51.350;17.056;2023-07-13T02:32:17;20.90;71.10
68433;DHT22;55412;51.350;17.056;2023-07-13T02:34:44;20.90;71.20
68433;DHT22;55412;51.350;17.056;2023-07-13T02:37:10;20.90;70.70
68433;DHT22;55412;51.350;17.056;2023-07-13T02:39:36;21.00;71.10
68433;DHT22;55412;51.350;17.056;2023-07-13T02:42:02;21.00;70.90
68433;DHT22;55412;51.350;17.056;2023-07-13T02:44:29;21.00;70.80
68433;DHT22;55412;51.350;17.056;2023-07-13T02:46:55;21.00;70.60
68433;DHT22;55412;51.350;17.056;2023-07-13T02:49:21;21.00;70.40
68433;DHT22;55412;51.350;17.056;2023-07-13T02:51:48;20.90;70.20
68433;DHT22;55412;51.350;17.056;2023-07-13T02:54:14;20.90;70.70
68433;DHT22;55412;51.350;17.056;2023-07-13T02:56:40;20.90;70.70
68433;DHT22;55412;51.350;17.056;2023-07-13T02:59:07;20.90;70.60
68433;DHT22;55412;51.350;17.056;2023-07-13T03:01:33;20.90;70.40
68433;DHT22;55412;51.350;17.056;2023-07-13T03:04:01;20.80;68.60
68433;DHT22;55412;51.350;17.056;2023-07-13T03:06:27;20.70;69.50
68433;DHT22;55412;51.350;17.056;2023-07-13T03:08:56;20.70;70.50
68433;DHT22;55412;51.350;17.056;2023-07-13T03:11:22;20.70;69.90
68433;DHT22;55412;51.350;17.056;2023-07-13T03:13:49;20.70;70.40
68433;DHT22;55412;51.350;17.056;2023-07-13T03:16:16;20.70;70.60
68433;DHT22;55412;51.350;17.056;2023-07-13T03:18:42;20.70;70.50
68433;DHT22;55412;51.350;17.056;2023-07-13T03:21:09;20.70;71.00
68433;DHT22;55412;51.350;17.056;2023-07-13T03:23:36;20.70;70.70
68433;DHT22;55412;51.350;17.056;2023-07-13T03:26:07;20.70;70.50
68433;DHT22;55412;51.350;17.056;2023-07-13T03:28:35;20.80;70.30
68433;DHT22;55412;51.350;17.056;2023-07-13T03:31:04;20.70;69.80
68433;DHT22;55412;51.350;17.056;2023-07-13T03:33:33;20.70;70.40
68433;DHT22;55412;51.350;17.056;2023-07-13T03:36:00;20.70;70.60
68433;DHT22;55412;51.350;17.056;2023-07-13T03:38:26;20.70;70.40
68433;DHT22;55412;51.350;17.056;2023-07-13T03:40:56;20.80;70.80
68433;DHT22;55412;51.350;17.056;2023-07-13T03:43:22;20.80;70.60
68433;DHT22;55412;51.350;17.056;2023-07-13T03:45:48;20.80;70.80
68433;DHT22;55412;51.350;17.056;2023-07-13T03:48:14;20.80;70.50
68433;DHT22;55412;51.350;17.056;2023-07-13T03:50:41;20.80;70.60
68433;DHT22;55412;51.350;17.056;2023-07-13T03:53:08;20.80;70.30
68433;DHT22;55412;51.350;17.056;2023-07-13T03:55:34;20.80;70.30
68433;DHT22;55412;51.350;17.056;2023-07-13T04:00:54;20.80;70.00
68433;DHT22;55412;51.350;17.056;2023-07-13T04:03:21;20.80;70.50
68433;DHT22;55412;51.350;17.056;2023-07-13T04:05:48;20.80;70.30
68433;DHT22;55412;51.350;17.056;2023-07-13T04:08:14;20.80;70.00
68433;DHT22;55412;51.350;17.056;2023-07-13T04:10:40;20.80;70.00
68433;DHT22;55412;51.350;17.056;2023-07-13T04:13:06;20.80;69.80
68433;DHT22;55412;51.350;17.056;2023-07-13T04:15:34;20.80;69.60
68433;DHT22;55412;51.350;17.056;2023-07-13T04:18:00;20.80;70.00
68433;DHT22;55412;51.350;17.056;2023-07-13T04:20:26;20.80;70.50
68433;DHT22;55412;51.350;17.056;2023-07-13T04:22:52;20.70;70.60
68433;DHT22;55412;51.350;17.056;2023-07-13T04:25:20;20.70;70.80
68433;DHT22;55412;51.350;17.056;2023-07-13T04:27:46;20.60;70.60
68433;DHT22;55412;51.350;17.056;2023-07-13T04:30:13;20.50;70.60
68433;DHT22;55412;51.350;17.056;2023-07-13T04:32:39;20.30;70.60
68433;DHT22;55412;51.350;17.056;2023-07-13T04:35:05;20.00;69.80
68433;DHT22;55412;51.350;17.056;2023-07-13T04:37:32;19.70;69.90
68433;DHT22;55412;51.350;17.056;2023-07-13T04:39:58;19.50;69.70
68433;DHT22;55412;51.350;17.056;2023-07-13T04:42:24;19.20;70.50
68433;DHT22;55412;51.350;17.056;2023-07-13T04:44:51;19.00;71.70
68433;DHT22;55412;51.350;17.056;2023-07-13T04:47:20;18.90;72.80
68433;DHT22;55412;51.350;17.056;2023-07-13T04:49:46;18.80;73.50
68433;DHT22;55412;51.350;17.056;2023-07-13T04:52:13;18.70;74.00
68433;DHT22;55412;51.350;17.056;2023-07-13T04:54:39;18.60;74.80
68433;DHT22;55412;51.350;17.056;2023-07-13T04:57:05;18.50;75.20
68433;DHT22;55412;51.350;17.056;2023-07-13T04:59:33;18.40;75.40
68433;DHT22;55412;51.350;17.056;2023-07-13T05:01:59;18.50;75.90
68433;DHT22;55412;51.350;17.056;2023-07-13T05:04:25;18.70;75.90
68433;DHT22;55412;51.350;17.056;2023-07-13T05:06:51;18.90;75.60
68433;DHT22;55412;51.350;17.056;2023-07-13T05:09:17;19.00;75.10
68433;DHT22;55412;51.350;17.056;2023-07-13T05:11:43;19.10;74.30
68433;DHT22;55412;51.350;17.056;2023-07-13T05:14:10;19.20;73.60
68433;DHT22;55412;51.350;17.056;2023-07-13T05:16:36;19.20;74.20
68433;DHT22;55412;51.350;17.056;2023-07-13T05:19:02;19.30;74.00
68433;DHT22;55412;51.350;17.056;2023-07-13T05:21:29;19.50;73.80
68433;DHT22;55412;51.350;17.056;2023-07-13T05:23:55;19.60;73.40
68433;DHT22;55412;51.350;17.056;2023-07-13T05:26:21;19.60;73.20
68433;DHT22;55412;51.350;17.056;2023-07-13T05:28:48;19.70;72.80
68433;DHT22;55412;51.350;17.056;2023-07-13T05:31:14;19.70;72.50
68433;DHT22;55412;51.350;17.056;2023-07-13T05:33:40;19.80;72.30
68433;DHT22;55412;51.350;17.056;2023-07-13T05:36:07;19.80;71.50
68433;DHT22;55412;51.350;17.056;2023-07-13T05:38:34;19.60;71.90
68433;DHT22;55412;51.350;17.056;2023-07-13T05:41:00;19.30;72.40
68433;DHT22;55412;51.350;17.056;2023-07-13T05:43:31;19.10;72.90
68433;DHT22;55412;51.350;17.056;2023-07-13T05:45:57;18.90;73.30
68433;DHT22;55412;51.350;17.056;2023-07-13T05:48:27;18.70;74.70
68433;DHT22;55412;51.350;17.056;2023-07-13T05:50:54;18.30;76.30
68433;DHT22;55412;51.350;17.056;2023-07-13T05:53:21;18.00;77.50
68433;DHT22;55412;51.350;17.056;2023-07-13T05:55:50;17.80;78.80
68433;DHT22;55412;51.350;17.056;2023-07-13T05:58:18;17.60;80.00
68433;DHT22;55412;51.350;17.056;2023-07-13T06:00:46;17.50;80.80
68433;DHT22;55412;51.350;17.056;2023-07-13T06:03:13;17.50;81.20
68433;DHT22;55412;51.350;17.056;2023-07-13T06:05:41;17.60;81.20
68433;DHT22;55412;51.350;17.056;2023-07-13T06:08:07;17.80;80.80
68433;DHT22;55412;51.350;17.056;2023-07-13T06:10:37;18.10;80.00
68433;DHT22;55412;51.350;17.056;2023-07-13T06:13:03;18.30;79.30
68433;DHT22;55412;51.350;17.056;2023-07-13T06:15:29;18.40;78.80
68433;DHT22;55412;51.350;17.056;2023-07-13T06:17:55;18.60;78.30
68433;DHT22;55412;51.350;17.056;2023-07-13T06:20:21;18.70;77.80
68433;DHT22;55412;51.350;17.056;2023-07-13T06:22:48;18.80;77.60
68433;DHT22;55412;51.350;17.056;2023-07-13T06:25:14;18.80;78.10
68433;DHT22;55412;51.350;17.056;2023-07-13T06:27:40;18.90;78.40
68433;DHT22;55412;51.350;17.056;2023-07-13T06:30:07;18.90;78.90
68433;DHT22;55412;51.350;17.056;2023-07-13T06:32:33;19.00;78.70
68433;DHT22;55412;51.350;17.056;2023-07-13T06:35:00;19.10;78.70
68433;DHT22;55412;51.350;17.056;2023-07-13T06:37:26;19.10;78.50
68433;DHT22;55412;51.350;17.056;2023-07-13T06:39:53;19.20;78.40
68433;DHT22;55412;51.350;17.056;2023-07-13T06:42:19;19.30;77.70
68433;DHT22;55412;51.350;17.056;2023-07-13T06:44:45;19.30;77.00
68433;DHT22;55412;51.350;17.056;2023-07-13T06:47:12;19.40;77.00
68433;DHT22;55412;51.350;17.056;2023-07-13T06:49:38;19.40;77.50
68433;DHT22;55412;51.350;17.056;2023-07-13T06:52:05;19.50;76.90
68433;DHT22;55412;51.350;17.056;2023-07-13T06:54:32;19.60;75.50
68433;DHT22;55412;51.350;17.056;2023-07-13T06:56:58;19.60;74.30
68433;DHT22;55412;51.350;17.056;2023-07-13T06:59:25;19.70;74.50
68433;DHT22;55412;51.350;17.056;2023-07-13T07:01:51;19.80;74.40
68433;DHT22;55412;51.350;17.056;2023-07-13T07:04:17;19.80;73.70
68433;DHT22;55412;51.350;17.056;2023-07-13T07:06:43;20.00;74.40
68433;DHT22;55412;51.350;17.056;2023-07-13T07:09:09;20.10;73.30
68433;DHT22;55412;51.350;17.056;2023-07-13T07:11:35;20.20;72.80
68433;DHT22;55412;51.350;17.056;2023-07-13T07:14:02;20.20;72.50
68433;DHT22;55412;51.350;17.056;2023-07-13T07:16:28;20.20;72.40
68433;DHT22;55412;51.350;17.056;2023-07-13T07:18:54;20.10;72.60
68433;DHT22;55412;51.350;17.056;2023-07-13T07:21:21;20.20;72.70
68433;DHT22;55412;51.350;17.056;2023-07-13T07:23:49;20.10;72.80
68433;DHT22;55412;51.350;17.056;2023-07-13T07:26:15;20.10;72.60
68433;DHT22;55412;51.350;17.056;2023-07-13T07:28:41;20.10;73.40
68433;DHT22;55412;51.350;17.056;2023-07-13T07:31:07;20.20;75.30
68433;DHT22;55412;51.350;17.056;2023-07-13T07:33:34;20.10;76.10
68433;DHT22;55412;51.350;17.056;2023-07-13T07:36:00;20.10;75.90
68433;DHT22;55412;51.350;17.056;2023-07-13T07:38:27;20.10;74.10
68433;DHT22;55412;51.350;17.056;2023-07-13T07:40:53;20.10;75.50
68433;DHT22;55412;51.350;17.056;2023-07-13T07:43:19;20.10;73.90
68433;DHT22;55412;51.350;17.056;2023-07-13T07:45:46;20.10;73.40
68433;DHT22;55412;51.350;17.056;2023-07-13T07:48:12;20.10;74.60
68433;DHT22;55412;51.350;17.056;2023-07-13T07:50:38;20.20;75.50
68433;DHT22;55412;51.350;17.056;2023-07-13T07:53:06;20.20;75.10
68433;DHT22;55412;51.350;17.056;2023-07-13T07:55:36;20.20;75.90
68433;DHT22;55412;51.350;17.056;2023-07-13T07:58:04;20.00;77.20
68433;DHT22;55412;51.350;17.056;2023-07-13T08:00:32;20.00;77.40
68433;DHT22;55412;51.350;17.056;2023-07-13T08:02:59;20.00;76.00
68433;DHT22;55412;51.350;17.056;2023-07-13T08:05:25;20.00;77.60
68433;DHT22;55412;51.350;17.056;2023-07-13T08:07:54;20.00;78.80
68433;DHT22;55412;51.350;17.056;2023-07-13T08:10:21;20.10;78.00
68433;DHT22;55412;51.350;17.056;2023-07-13T08:12:47;20.10;78.70
68433;DHT22;55412;51.350;17.056;2023-07-13T08:15:16;20.10;78.50
68433;DHT22;55412;51.350;17.056;2023-07-13T08:17:42;20.20;76.30
68433;DHT22;55412;51.350;17.056;2023-07-13T08:20:09;20.20;79.20
68433;DHT22;55412;51.350;17.056;2023-07-13T08:22:36;20.20;80.80
68433;DHT22;55412;51.350;17.056;2023-07-13T08:25:02;20.10;79.50
68433;DHT22;55412;51.350;17.056;2023-07-13T08:27:29;20.10;78.70
68433;DHT22;55412;51.350;17.056;2023-07-13T08:29:55;20.10;77.70
68433;DHT22;55412;51.350;17.056;2023-07-13T08:32:23;20.20;77.30
68433;DHT22;55412;51.350;17.056;2023-07-13T08:34:50;20.30;76.60
68433;DHT22;55412;51.350;17.056;2023-07-13T08:37:18;20.30;75.60
68433;DHT22;55412;51.350;17.056;2023-07-13T08:39:48;20.40;74.90
68433;DHT22;55412;51.350;17.056;2023-07-13T08:42:39;20.50;74.30
68433;DHT22;55412;51.350;17.056;2023-07-13T08:46:05;20.50;73.70
68433;DHT22;55412;51.350;17.056;2023-07-13T08:48:28;20.60;73.70
68433;DHT22;55412;51.350;17.056;2023-07-13T08:51:04;20.60;73.60
68433;DHT22;55412;51.350;17.056;2023-07-13T08:53:49;20.70;73.40
68433;DHT22;55412;51.350;17.056;2023-07-13T08:56:24;20.70;73.80
68433;DHT22;55412;51.350;17.056;2023-07-13T08:59:05;20.70;73.00
68433;DHT22;55412;51.350;17.056;2023-07-13T09:04:53;20.60;73.20
68433;DHT22;55412;51.350;17.056;2023-07-13T09:10:48;20.70;73.30
68433;DHT22;55412;51.350;17.056;2023-07-13T09:13:20;20.70;72.70
68433;DHT22;55412;51.350;17.056;2023-07-13T09:15:55;20.70;72.90
68433;DHT22;55412;51.350;17.056;2023-07-13T09:18:37;20.80;73.00
68433;DHT22;55412;51.350;17.056;2023-07-13T09:21:25;20.80;72.70
68433;DHT22;55412;51.350;17.056;2023-07-13T09:26:58;21.00;72.40
68433;DHT22;55412;51.350;17.056;2023-07-13T09:29:35;21.00;72.20
68433;DHT22;55412;51.350;17.056;2023-07-13T09:32:07;21.10;72.40
68433;DHT22;55412;51.350;17.056;2023-07-13T09:34:36;21.20;72.90
68433;DHT22;55412;51.350;17.056;2023-07-13T09:37:02;21.30;73.30
68433;DHT22;55412;51.350;17.056;2023-07-13T09:39:34;21.40;72.90
68433;DHT22;55412;51.350;17.056;2023-07-13T09:42:18;21.50;71.60
68433;DHT22;55412;51.350;17.056;2023-07-13T09:44:59;21.60;72.10
68433;DHT22;55412;51.350;17.056;2023-07-13T09:47:30;21.70;71.10
68433;DHT22;55412;51.350;17.056;2023-07-13T09:50:08;21.70;69.50
68433;DHT22;55412;51.350;17.056;2023-07-13T09:52:44;21.60;70.00
68433;DHT22;55412;51.350;17.056;2023-07-13T09:55:37;21.60;70.80
68433;DHT22;55412;51.350;17.056;2023-07-13T09:58:21;21.70;70.50
68433;DHT22;55412;51.350;17.056;2023-07-13T10:00:58;21.80;70.50
68433;DHT22;55412;51.350;17.056;2023-07-13T10:03:33;21.90;71.50
68433;DHT22;55412;51.350;17.056;2023-07-13T10:06:18;21.90;69.70
68433;DHT22;55412;51.350;17.056;2023-07-13T10:08:50;22.00;70.80
68433;DHT22;55412;51.350;17.056;2023-07-13T10:13:58;22.10;71.40
68433;DHT22;55412;51.350;17.056;2023-07-13T10:16:35;22.20;70.40
68433;DHT22;55412;51.350;17.056;2023-07-13T10:19:09;22.20;69.80
68433;DHT22;55412;51.350;17.056;2023-07-13T10:21:54;22.20;70.40
68433;DHT22;55412;51.350;17.056;2023-07-13T10:24:30;22.30;70.80
68433;DHT22;55412;51.350;17.056;2023-07-13T10:30:13;22.40;70.10
68433;DHT22;55412;51.350;17.056;2023-07-13T10:32:39;22.40;71.10
68433;DHT22;55412;51.350;17.056;2023-07-13T10:35:12;22.30;68.50
68433;DHT22;55412;51.350;17.056;2023-07-13T10:38:02;22.20;68.40
68433;DHT22;55412;51.350;17.056;2023-07-13T10:40:42;22.20;69.20
68433;DHT22;55412;51.350;17.056;2023-07-13T10:43:21;22.30;71.20
68433;DHT22;55412;51.350;17.056;2023-07-13T10:45:52;22.40;71.30
68433;DHT22;55412;51.350;17.056;2023-07-13T10:48:21;22.50;70.30
68433;DHT22;55412;51.350;17.056;2023-07-13T10:50:50;22.50;68.30
68433;DHT22;55412;51.350;17.056;2023-07-13T10:53:29;22.40;68.00
68433;DHT22;55412;51.350;17.056;2023-07-13T10:58:42;22.30;69.00
68433;DHT22;55412;51.350;17.056;2023-07-13T11:01:12;22.20;68.70
68433;DHT22;55412;51.350;17.056;2023-07-13T11:09:32;22.20;69.00
68433;DHT22;55412;51.350;17.056;2023-07-13T11:12:26;22.20;69.80
68433;DHT22;55412;51.350;17.056;2023-07-13T11:17:53;22.20;68.70
68433;DHT22;55412;51.350;17.056;2023-07-13T11:20:37;22.20;68.50
68433;DHT22;55412;51.350;17.056;2023-07-13T11:25:43;22.20;66.60
68433;DHT22;55412;51.350;17.056;2023-07-13T11:33:20;22.50;65.90
68433;DHT22;55412;51.350;17.056;2023-07-13T11:36:02;22.50;66.40
68433;DHT22;55412;51.350;17.056;2023-07-13T11:38:37;22.40;66.30
68433;DHT22;55412;51.350;17.056;2023-07-13T11:41:27;22.50;66.80
68433;DHT22;55412;51.350;17.056;2023-07-13T11:46:51;22.50;66.40
68433;DHT22;55412;51.350;17.056;2023-07-13T11:49:21;22.50;66.30
68433;DHT22;55412;51.350;17.056;2023-07-13T11:51:49;22.50;65.70
68433;DHT22;55412;51.350;17.056;2023-07-13T11:54:29;22.60;66.10
68433;DHT22;55412;51.350;17.056;2023-07-13T11:57:28;22.70;66.50
68433;DHT22;55412;51.350;17.056;2023-07-13T12:00:03;22.70;66.00
68433;DHT22;55412;51.350;17.056;2023-07-13T12:02:39;22.50;66.20
68433;DHT22;55412;51.350;17.056;2023-07-13T12:05:11;22.50;67.00
68433;DHT22;55412;51.350;17.056;2023-07-13T12:07:39;22.50;66.90
68433;DHT22;55412;51.350;17.056;2023-07-13T12:12:51;22.50;66.50
68433;DHT22;55412;51.350;17.056;2023-07-13T12:15:23;22.50;66.60
68433;DHT22;55412;51.350;17.056;2023-07-13T12:17:56;22.50;66.80
68433;DHT22;55412;51.350;17.056;2023-07-13T12:20:27;22.60;67.30
68433;DHT22;55412;51.350;17.056;2023-07-13T12:23:00;22.80;66.40
68433;DHT22;55412;51.350;17.056;2023-07-13T12:25:28;22.90;65.50
68433;DHT22;55412;51.350;17.056;2023-07-13T12:27:55;23.00;65.40
68433;DHT22;55412;51.350;17.056;2023-07-13T12:30:28;23.00;65.80
68433;DHT22;55412;51.350;17.056;2023-07-13T12:33:17;22.90;65.40
68433;DHT22;55412;51.350;17.056;2023-07-13T12:35:47;22.80;65.80
68433;DHT22;55412;51.350;17.056;2023-07-13T12:38:18;22.70;66.10
68433;DHT22;55412;51.350;17.056;2023-07-13T12:40:49;22.60;66.30
68433;DHT22;55412;51.350;17.056;2023-07-13T12:43:17;22.60;66.20
68433;DHT22;55412;51.350;17.056;2023-07-13T12:46:01;22.60;66.60
68433;DHT22;55412;51.350;17.056;2023-07-13T12:48:28;22.60;66.30
68433;DHT22;55412;51.350;17.056;2023-07-13T12:50:55;22.60;66.50
68433;DHT22;55412;51.350;17.056;2023-07-13T12:53:27;22.70;66.20
68433;DHT22;55412;51.350;17.056;2023-07-13T12:55:57;22.90;65.70
68433;DHT22;55412;51.350;17.056;2023-07-13T12:58:38;23.00;65.40
68433;DHT22;55412;51.350;17.056;2023-07-13T13:01:10;23.00;64.20
68433;DHT22;55412;51.350;17.056;2023-07-13T13:03:46;23.10;64.10
68433;DHT22;55412;51.350;17.056;2023-07-13T13:08:47;23.40;63.00
68433;DHT22;55412;51.350;17.056;2023-07-13T13:11:18;23.40;63.40
68433;DHT22;55412;51.350;17.056;2023-07-13T13:13:45;23.40;63.60
68433;DHT22;55412;51.350;17.056;2023-07-13T13:16:20;23.30;63.70
68433;DHT22;55412;51.350;17.056;2023-07-13T13:18:49;23.20;63.70
68433;DHT22;55412;51.350;17.056;2023-07-13T13:21:17;23.10;63.90
68433;DHT22;55412;51.350;17.056;2023-07-13T13:23:44;23.00;64.10
68433;DHT22;55412;51.350;17.056;2023-07-13T13:26:13;23.00;64.10
68433;DHT22;55412;51.350;17.056;2023-07-13T13:28:44;22.80;63.90
68433;DHT22;55412;51.350;17.056;2023-07-13T13:31:12;22.80;63.60
68433;DHT22;55412;51.350;17.056;2023-07-13T13:33:40;23.00;63.80
68433;DHT22;55412;51.350;17.056;2023-07-13T13:36:19;22.90;63.10
68433;DHT22;55412;51.350;17.056;2023-07-13T13:38:48;22.90;63.20
68433;DHT22;55412;51.350;17.056;2023-07-13T13:41:15;22.90;63.60
68433;DHT22;55412;51.350;17.056;2023-07-13T13:43:43;23.00;63.50
68433;DHT22;55412;51.350;17.056;2023-07-13T13:46:23;23.10;63.70
68433;DHT22;55412;51.350;17.056;2023-07-13T13:48:55;23.10;63.30
68433;DHT22;55412;51.350;17.056;2023-07-13T13:51:23;23.10;61.10
68433;DHT22;55412;51.350;17.056;2023-07-13T13:53:50;23.10;62.70
68433;DHT22;55412;51.350;17.056;2023-07-13T13:56:19;23.10;63.10
68433;DHT22;55412;51.350;17.056;2023-07-13T13:58:46;23.00;63.10
68433;DHT22;55412;51.350;17.056;2023-07-13T14:01:18;23.00;61.10
68433;DHT22;55412;51.350;17.056;2023-07-13T14:03:46;23.10;62.70
68433;DHT22;55412;51.350;17.056;2023-07-13T14:06:15;23.00;62.80
68433;DHT22;55412;51.350;17.056;2023-07-13T14:08:42;23.00;62.70
68433;DHT22;55412;51.350;17.056;2023-07-13T14:11:13;23.00;62.30
68433;DHT22;55412;51.350;17.056;2023-07-13T14:13:49;23.00;62.40
68433;DHT22;55412;51.350;17.056;2023-07-13T14:16:18;23.00;62.00
68433;DHT22;55412;51.350;17.056;2023-07-13T14:18:47;23.10;61.20
68433;DHT22;55412;51.350;17.056;2023-07-13T14:21:20;23.20;60.50
68433;DHT22;55412;51.350;17.056;2023-07-13T14:23:48;23.30;59.70
68433;DHT22;55412;51.350;17.056;2023-07-13T14:26:18;23.40;60.00
68433;DHT22;55412;51.350;17.056;2023-07-13T14:28:49;23.50;58.50
68433;DHT22;55412;51.350;17.056;2023-07-13T14:31:17;23.60;57.40
68433;DHT22;55412;51.350;17.056;2023-07-13T14:33:46;23.70;57.30
68433;DHT22;55412;51.350;17.056;2023-07-13T14:36:23;23.70;57.40
68433;DHT22;55412;51.350;17.056;2023-07-13T14:38:52;23.70;58.40
68433;DHT22;55412;51.350;17.056;2023-07-13T14:41:19;23.70;58.50
68433;DHT22;55412;51.350;17.056;2023-07-13T14:43:46;23.70;58.80
68433;DHT22;55412;51.350;17.056;2023-07-13T14:46:31;23.70;59.80
68433;DHT22;55412;51.350;17.056;2023-07-13T14:49:23;23.60;61.00
68433;DHT22;55412;51.350;17.056;2023-07-13T14:51:56;23.60;61.70
68433;DHT22;55412;51.350;17.056;2023-07-13T14:54:24;23.50;62.00
68433;DHT22;55412;51.350;17.056;2023-07-13T14:56:50;23.50;62.70
68433;DHT22;55412;51.350;17.056;2023-07-13T14:59:16;23.40;62.40
68433;DHT22;55412;51.350;17.056;2023-07-13T15:01:46;23.40;62.80
68433;DHT22;55412;51.350;17.056;2023-07-13T15:04:13;23.30;62.80
68433;DHT22;55412;51.350;17.056;2023-07-13T15:06:54;23.20;62.50
68433;DHT22;55412;51.350;17.056;2023-07-13T15:09:23;23.20;62.50
68433;DHT22;55412;51.350;17.056;2023-07-13T15:11:53;23.10;62.90
68433;DHT22;55412;51.350;17.056;2023-07-13T15:14:20;23.00;62.90
68433;DHT22;55412;51.350;17.056;2023-07-13T15:16:49;23.00;63.00
68433;DHT22;55412;51.350;17.056;2023-07-13T15:19:19;23.00;67.60
68433;DHT22;55412;51.350;17.056;2023-07-13T15:21:47;22.90;67.70
68433;DHT22;55412;51.350;17.056;2023-07-13T15:24:14;22.90;69.20
68433;DHT22;55412;51.350;17.056;2023-07-13T15:26:41;22.90;66.80
68433;DHT22;55412;51.350;17.056;2023-07-13T15:29:11;22.90;67.60
68433;DHT22;55412;51.350;17.056;2023-07-13T15:31:38;22.90;69.50
68433;DHT22;55412;51.350;17.056;2023-07-13T15:34:13;23.00;68.60
68433;DHT22;55412;51.350;17.056;2023-07-13T15:36:40;23.00;69.20
68433;DHT22;55412;51.350;17.056;2023-07-13T15:39:08;23.00;68.70
68433;DHT22;55412;51.350;17.056;2023-07-13T15:41:41;23.00;67.80
68433;DHT22;55412;51.350;17.056;2023-07-13T15:44:25;22.90;67.90
68433;DHT22;55412;51.350;17.056;2023-07-13T15:46:54;22.90;67.50
68433;DHT22;55412;51.350;17.056;2023-07-13T15:49:20;22.80;67.60
68433;DHT22;55412;51.350;17.056;2023-07-13T15:51:47;22.80;68.00
68433;DHT22;55412;51.350;17.056;2023-07-13T15:54:16;22.80;67.80
68433;DHT22;55412;51.350;17.056;2023-07-13T15:56:44;22.80;67.00
68433;DHT22;55412;51.350;17.056;2023-07-13T15:59:17;22.70;65.40
68433;DHT22;55412;51.350;17.056;2023-07-13T16:01:44;22.60;65.10
68433;DHT22;55412;51.350;17.056;2023-07-13T16:04:12;22.60;63.50
68433;DHT22;55412;51.350;17.056;2023-07-13T16:06:40;22.50;62.30
68433;DHT22;55412;51.350;17.056;2023-07-13T16:09:13;22.50;64.80
68433;DHT22;55412;51.350;17.056;2023-07-13T16:11:45;22.50;65.20
68433;DHT22;55412;51.350;17.056;2023-07-13T16:14:14;22.50;64.40
68433;DHT22;55412;51.350;17.056;2023-07-13T16:16:42;22.50;64.00
68433;DHT22;55412;51.350;17.056;2023-07-13T16:19:10;22.50;64.80